Time;durP1;ratioP1;P1;durP2;ratioP2;P2;SDS_P1;SDS_P2;PMS_P1;PMS_P2;Temp;Humidity;BMP_temperature;BMP_pressure;BME280_temperature;BME280_humidity;BME280_pressure;Samples;Min_cycle;Max_cycle;Signal;HPM_P1;HPM_P2
2023/12/22 00:00:11;;;;;;;0.40;0.35;;;;;;;7.42;62.80;98086.25;4943765;29;20035;-68
2023/12/22 00:02:36;;;;;;;6.60;0.60;;;;;;;7.55;62.08;98076.56;4941869;28;20039;-68
2023/12/22 00:05:02;;;;;;;7.43;1.20;;;;;;;7.52;62.14;98093.41;4944274;28;20039;-68
2023/12/22 00:07:28;;;;;;;7.53;0.60;;;;;;;7.64;61.06;98096.38;4966377;28;20118;-68
2023/12/22 00:09:54;;;;;;;5.28;0.77;;;;;;;7.40;61.91;98081.28;4929662;29;20039;-68
2023/12/22 00:12:19;;;;;;;1.85;0.70;;;;;;;7.37;61.59;98087.44;4941257;28;20039;-68
2023/12/22 00:14:44;;;;;;;1.20;0.57;;;;;;;7.53;61.75;98087.66;4945826;28;20728;-68
2023/12/22 00:17:10;;;;;;;2.92;0.40;;;;;;;7.53;61.74;98105.66;4945463;29;20031;-68
2023/12/22 00:19:35;;;;;;;4.05;0.90;;;;;;;7.40;62.42;98105.38;4942356;28;20473;-68
2023/12/22 00:22:03;;;;;;;0.73;0.70;;;;;;;7.36;62.98;98101.97;4941089;28;20031;-68
2023/12/22 00:24:29;;;;;;;0.40;0.30;;;;;;;7.45;64.02;98106.88;4948334;28;20529;-68
2023/12/22 00:26:54;;;;;;;1.95;0.93;;;;;;;7.48;64.16;98108.75;4942567;28;20046;-69
2023/12/22 00:29:19;;;;;;;4.90;0.75;;;;;;;7.47;64.33;98104.56;4952327;28;20023;-68
2023/12/22 00:31:45;;;;;;;0.82;0.80;;;;;;;7.58;64.08;98115.94;4946733;29;20130;-68
2023/12/22 00:34:10;;;;;;;1.27;0.57;;;;;;;7.51;64.67;98108.72;4946312;28;20118;-69
2023/12/22 00:36:36;;;;;;;2.25;0.40;;;;;;;7.55;65.62;98119.41;4947800;28;20494;-68
2023/12/22 00:39:03;;;;;;;5.05;0.40;;;;;;;7.26;66.70;98105.50;4937089;29;20075;-68
2023/12/22 00:41:28;;;;;;;1.08;0.57;;;;;;;7.51;67.60;98126.72;4947413;28;20042;-68
2023/12/22 00:43:54;;;;;;;1.90;1.08;;;;;;;7.47;67.10;98125.97;4945985;29;20043;-68
2023/12/22 00:46:20;;;;;;;5.55;0.98;;;;;;;7.39;68.58;98121.84;4938157;29;20047;-68
2023/12/22 00:48:45;;;;;;;1.63;0.55;;;;;;;7.49;68.37;98121.00;4946942;28;20383;-68
2023/12/22 00:51:11;;;;;;;6.15;1.05;;;;;;;7.59;68.96;98130.84;4940688;29;20027;-68
2023/12/22 00:53:36;;;;;;;1.00;0.90;;;;;;;8.10;69.27;98125.34;4942226;28;20055;-68
2023/12/22 00:56:06;;;;;;;2.67;0.77;;;;;;;7.94;74.53;98139.28;4936300;29;20039;-68
2023/12/22 00:58:31;;;;;;;6.00;1.63;;;;;;;8.05;74.94;98141.88;4961035;28;20039;-68
2023/12/22 01:00:56;;;;;;;8.48;1.40;;;;;;;7.73;77.55;98146.78;4942819;29;20037;-68
2023/12/22 01:03:22;;;;;;;5.72;0.57;;;;;;;7.82;77.55;98133.69;4946566;28;20511;-68
2023/12/22 01:05:48;;;;;;;2.50;0.60;;;;;;;7.92;77.62;98120.16;4946172;29;20039;-68
2023/12/22 01:08:13;;;;;;;1.23;0.60;;;;;;;7.69;78.50;98128.06;4946256;29;20035;-68
2023/12/22 01:10:38;;;;;;;2.47;1.02;;;;;;;7.36;78.95;98128.75;4942047;28;20039;-68
2023/12/22 01:13:04;;;;;;;1.90;0.45;;;;;;;7.34;79.01;98131.06;4943565;29;20047;-68
2023/12/22 01:15:29;;;;;;;3.60;1.00;;;;;;;7.53;78.82;98135.13;4928515;29;20047;-68
2023/12/22 01:17:55;;;;;;;1.08;0.80;;;;;;;7.71;78.71;98133.00;4944936;28;20031;-68
2023/12/22 01:20:20;;;;;;;2.60;0.88;;;;;;;7.48;79.41;98130.94;4947857;29;20110;-69
2023/12/22 01:22:45;;;;;;;2.35;0.98;;;;;;;7.54;79.41;98142.75;4977221;28;20101;-69
2023/12/22 01:25:11;;;;;;;1.00;0.90;;;;;;;7.71;79.43;98136.47;4977601;28;20130;-68
2023/12/22 01:27:36;;;;;;;1.35;0.93;;;;;;;7.15;82.46;98147.63;4949200;29;20039;-69
2023/12/22 01:30:02;;;;;;;3.53;0.55;;;;;;;7.28;82.45;98151.34;4947988;28;20099;-68
2023/12/22 01:32:34;;;;;;;2.88;0.85;;;;;;;6.97;83.30;98155.78;4948888;28;20039;-68
2023/12/22 01:35:03;;;;;;;1.55;0.73;;;;;;;7.26;83.89;98151.75;4947004;29;20031;-68
2023/12/22 01:37:28;;;;;;;1.33;1.08;;;;;;;7.56;82.92;98153.81;4945642;29;20118;-69
2023/12/22 01:39:54;;;;;;;0.75;0.30;;;;;;;7.66;83.98;98184.34;4944055;29;20620;-68
2023/12/22 01:42:20;;;;;;;0.47;0.43;;;;;;;6.90;89.14;98171.88;4944774;29;20043;-68
2023/12/22 01:44:45;;;;;;;0.60;0.30;;;;;;;6.59;92.85;98185.41;4948103;29;20035;-68
2023/12/22 01:47:10;;;;;;;1.38;0.35;;;;;;;6.54;93.44;98197.28;4947339;28;20038;-68
2023/12/22 01:49:36;;;;;;;5.22;0.80;;;;;;;6.80;92.11;98177.28;4950576;29;20027;-68
2023/12/22 01:52:02;;;;;;;0.47;0.47;;;;;;;6.38;92.93;98188.94;4948456;29;20097;-69
2023/12/22 01:54:28;;;;;;;0.68;0.68;;;;;;;6.16;94.70;98169.53;4946564;29;20039;-69
2023/12/22 01:56:54;;;;;;;0.10;0.10;;;;;;;5.99;95.18;98178.38;4946027;28;20094;-68
2023/12/22 01:59:20;;;;;;;0.50;0.35;;;;;;;5.75;97.35;98183.72;4947206;29;20031;-68
2023/12/22 02:01:45;;;;;;;3.60;0.30;;;;;;;5.82;96.91;98165.78;4943321;28;20496;-68
2023/12/22 02:04:12;;;;;;;0.22;0.22;;;;;;;6.07;96.77;98165.75;4958970;28;20299;-68
2023/12/22 02:06:37;;;;;;;0.30;0.30;;;;;;;6.15;96.25;98167.25;4943510;29;20119;-68
2023/12/22 02:09:04;;;;;;;0.73;0.65;;;;;;;6.10;95.94;98164.97;4962834;28;20118;-68
2023/12/22 02:11:29;;;;;;;0.20;0.20;;;;;;;6.00;96.46;98157.78;4948914;28;20422;-68
2023/12/22 02:13:55;;;;;;;0.30;0.30;;;;;;;6.20;96.00;98156.16;4945571;29;20042;-68
2023/12/22 02:16:37;;;;;;;0.30;0.30;;;;;;;6.13;95.30;98156.19;4942021;29;20106;-69
2023/12/22 02:19:21;;;;;;;0.30;0.30;;;;;;;6.01;96.28;98151.25;4943161;29;20418;-68
2023/12/22 02:22:03;;;;;;;0.57;0.45;;;;;;;6.01;97.30;98148.59;4943817;28;20050;-68
2023/12/22 02:24:30;;;;;;;0.30;0.30;;;;;;;5.85;97.13;98133.00;4952047;28;20039;-68
2023/12/22 02:27:29;;;;;;;2.03;0.20;;;;;;;5.61;98.01;98130.34;4943720;28;20035;-68
2023/12/22 02:30:05;;;;;;;0.73;0.30;;;;;;;5.68;98.05;98149.78;4935540;28;20137;-68
2023/12/22 02:32:34;;;;;;;0.35;0.35;;;;;;;5.67;98.82;98142.91;4969854;28;20038;-68
2023/12/22 02:35:04;;;;;;;0.20;0.20;;;;;;;5.63;99.72;98141.41;4942866;29;20027;-68
2023/12/22 02:37:32;;;;;;;2.38;0.50;;;;;;;6.17;97.12;98135.56;4943517;28;20027;-68
2023/12/22 02:39:59;;;;;;;0.20;0.20;;;;;;;6.07;96.98;98141.72;4959179;28;20042;-68
2023/12/22 02:42:29;;;;;;;0.40;0.40;;;;;;;5.73;98.66;98125.34;4945685;29;20043;-68
2023/12/22 02:44:59;;;;;;;0.30;0.30;;;;;;;5.86;99.60;98129.19;4946875;29;20035;-68
2023/12/22 02:47:27;;;;;;;1.85;0.50;;;;;;;5.88;99.88;98145.59;4932314;29;20030;-68
2023/12/22 02:49:52;;;;;;;1.58;0.52;;;;;;;5.59;100.00;98129.97;4943421;28;20065;-69
2023/12/22 02:52:18;;;;;;;1.00;0.47;;;;;;;5.98;100.00;98142.09;4942363;29;20023;-69
2023/12/22 02:54:43;;;;;;;0.30;0.30;;;;;;;5.93;99.87;98147.09;4950863;28;20522;-68
2023/12/22 02:57:09;;;;;;;1.45;0.35;;;;;;;5.74;100.00;98147.47;4944675;29;20418;-68
2023/12/22 02:59:34;;;;;;;0.22;0.22;;;;;;;5.93;99.60;98157.78;4946121;29;20034;-68
2023/12/22 03:02:00;;;;;;;0.57;0.40;;;;;;;5.86;99.30;98125.75;4950820;28;20054;-68
2023/12/22 03:04:26;;;;;;;1.23;0.43;;;;;;;5.31;100.00;98144.09;4942736;28;20031;-68
2023/12/22 03:06:51;;;;;;;2.50;0.35;;;;;;;5.50;100.00;98168.47;4942188;28;20043;-69
2023/12/22 03:09:17;;;;;;;0.95;0.40;;;;;;;5.66;99.28;98168.09;4942340;29;20035;-68
2023/12/22 03:11:42;;;;;;;0.40;0.40;;;;;;;5.78;98.40;98145.56;4946541;28;20178;-68
2023/12/22 03:14:08;;;;;;;0.20;0.20;;;;;;;5.56;100.00;98142.16;4947663;29;20436;-68
2023/12/22 03:16:34;;;;;;;0.55;0.30;;;;;;;5.43;100.00;98159.72;4940627;28;20583;-68
2023/12/22 03:18:59;;;;;;;0.30;0.30;;;;;;;5.49;100.00;98155.53;4943389;29;20071;-68
2023/12/22 03:21:25;;;;;;;0.57;0.47;;;;;;;5.01;100.00;98165.03;4943902;28;20033;-68
2023/12/22 03:23:50;;;;;;;0.93;0.90;;;;;;;5.19;100.00;98153.22;4942482;28;20063;-69
2023/12/22 03:26:16;;;;;;;0.30;0.30;;;;;;;5.21;99.83;98147.50;4945363;29;20051;-68
2023/12/22 03:28:41;;;;;;;0.68;0.68;;;;;;;5.21;99.81;98156.28;4944580;28;20667;-68
2023/12/22 03:31:07;;;;;;;2.65;0.60;;;;;;;5.50;97.79;98157.03;4933435;29;20039;-68
2023/12/22 03:33:33;;;;;;;0.30;0.30;;;;;;;5.48;96.37;98165.44;4946924;28;20069;-68
2023/12/22 03:35:58;;;;;;;0.20;0.20;;;;;;;5.33;95.80;98150.56;4942047;29;20035;-68
2023/12/22 03:38:24;;;;;;;0.30;0.30;;;;;;;5.71;94.88;98151.66;4943354;29;20131;-69
2023/12/22 03:40:49;;;;;;;3.53;0.55;;;;;;;5.60;94.26;98150.16;4940182;29;20046;-68
2023/12/22 03:43:15;;;;;;;0.30;0.30;;;;;;;5.34;94.51;98143.34;4941364;29;20184;-68
2023/12/22 03:45:40;;;;;;;0.20;0.20;;;;;;;4.96;95.49;98146.72;4941258;29;20085;-68
2023/12/22 03:48:06;;;;;;;0.20;0.20;;;;;;;5.09;95.77;98132.66;4948748;29;20129;-69
2023/12/22 03:50:32;;;;;;;0.20;0.20;;;;;;;4.92;95.45;98143.28;4946980;29;20163;-68
2023/12/22 03:52:57;;;;;;;0.20;0.20;;;;;;;4.76;96.75;98150.91;4945573;28;20038;-68
2023/12/22 03:55:22;;;;;;;0.20;0.20;;;;;;;5.00;96.31;98150.94;4946231;28;20039;-68
2023/12/22 03:57:48;;;;;;;1.25;0.45;;;;;;;5.19;94.18;98141.78;4947339;29;20034;-69
2023/12/22 04:00:14;;;;;;;0.32;0.32;;;;;;;5.23;94.51;98134.56;4947205;28;20031;-68
2023/12/22 04:02:40;;;;;;;0.20;0.20;;;;;;;5.01;95.42;98141.81;4959119;28;20035;-68
2023/12/22 04:05:05;;;;;;;6.03;0.68;;;;;;;5.24;95.30;98138.75;4940944;29;20574;-69
2023/12/22 04:07:31;;;;;;;0.20;0.20;;;;;;;5.29;94.32;98138.38;4941687;29;20031;-68
2023/12/22 04:09:56;;;;;;;1.08;0.70;;;;;;;5.31;94.41;98130.75;4943195;28;20043;-68
2023/12/22 04:12:22;;;;;;;5.47;0.77;;;;;;;4.99;95.98;98113.97;4944094;29;20096;-68
2023/12/22 04:14:47;;;;;;;0.32;0.32;;;;;;;5.20;95.74;98133.44;4947261;28;20094;-68
2023/12/22 04:17:12;;;;;;;0.45;0.45;;;;;;;5.28;95.28;98115.50;4944737;29;20054;-68
2023/12/22 04:19:38;;;;;;;0.55;0.55;;;;;;;5.21;95.42;98124.28;4972200;28;20686;-68
2023/12/22 04:22:03;;;;;;;0.20;0.20;;;;;;;5.16;96.06;98107.88;4938344;28;20054;-68
2023/12/22 04:24:29;;;;;;;0.30;0.30;;;;;;;5.21;96.44;98113.59;4947431;28;20023;-68
2023/12/22 04:26:54;;;;;;;0.30;0.30;;;;;;;5.10;96.85;98107.50;4942121;28;20043;-68
2023/12/22 04:29:19;;;;;;;2.35;0.32;;;;;;;5.59;94.49;98095.28;4943079;29;20063;-68
2023/12/22 04:31:45;;;;;;;0.63;0.63;;;;;;;5.58;94.35;98110.50;4946454;28;20039;-68
2023/12/22 04:34:14;;;;;;;0.30;0.30;;;;;;;5.79;95.02;98118.47;4945344;28;20043;-68
2023/12/22 04:36:40;;;;;;;8.50;0.30;;;;;;;5.64;95.77;98100.97;4946504;29;20037;-68
2023/12/22 04:39:05;;;;;;;0.38;0.30;;;;;;;5.65;95.72;98110.53;4947771;28;20558;-68
2023/12/22 04:41:30;;;;;;;5.47;0.50;;;;;;;5.65;97.45;98115.84;4944579;28;20482;-69
2023/12/22 04:43:56;;;;;;;0.50;0.50;;;;;;;6.00;96.60;98125.72;4944487;29;20039;-68
2023/12/22 04:46:21;;;;;;;0.70;0.32;;;;;;;5.64;97.19;98124.22;4962054;28;20062;-68
2023/12/22 04:48:47;;;;;;;0.20;0.20;;;;;;;5.89;96.90;98125.75;4944300;29;20027;-68
2023/12/22 04:51:12;;;;;;;2.72;0.40;;;;;;;5.77;96.76;98133.38;4943780;29;20498;-68
2023/12/22 04:53:37;;;;;;;7.40;0.43;;;;;;;5.98;95.27;98118.06;4946431;28;20044;-68
2023/12/22 04:56:03;;;;;;;0.52;0.50;;;;;;;5.91;96.86;98125.34;4944662;28;20046;-68
2023/12/22 04:58:29;;;;;;;1.70;0.52;;;;;;;5.80;96.13;98138.72;4939866;29;20049;-68
2023/12/22 05:00:54;;;;;;;1.20;1.10;;;;;;;5.86;95.25;98115.06;4931424;29;20035;-68
2023/12/22 05:03:19;;;;;;;1.35;0.32;;;;;;;5.98;95.60;98120.00;4944548;29;20042;-68
2023/12/22 05:05:45;;;;;;;0.70;0.30;;;;;;;6.00;95.73;98128.38;4934001;29;20039;-69
2023/12/22 05:08:11;;;;;;;3.75;0.50;;;;;;;5.66;97.10;98124.59;4943137;28;20451;-68
2023/12/22 05:10:36;;;;;;;0.30;0.30;;;;;;;5.88;95.98;98112.78;4941939;28;20045;-68
2023/12/22 05:13:02;;;;;;;1.23;0.52;;;;;;;5.66;95.45;98133.38;4937703;28;20114;-68
2023/12/22 05:15:27;;;;;;;0.40;0.30;;;;;;;5.85;95.32;98124.97;4948627;29;20043;-68
2023/12/22 05:17:53;;;;;;;1.65;0.60;;;;;;;5.86;93.73;98145.22;4949057;28;20513;-68
2023/12/22 05:20:18;;;;;;;0.52;0.52;;;;;;;5.98;93.36;98130.69;4950683;28;20130;-68
2023/12/22 05:22:44;;;;;;;0.68;0.30;;;;;;;5.71;93.35;98142.91;4948885;28;20043;-69
2023/12/22 05:25:10;;;;;;;1.05;0.95;;;;;;;5.44;93.97;98159.31;4947525;28;20059;-68
2023/12/22 05:27:35;;;;;;;1.20;0.38;;;;;;;5.69;93.68;98166.56;4947993;28;20038;-68
2023/12/22 05:30:03;;;;;;;0.30;0.30;;;;;;;5.67;95.44;98158.19;4950137;28;20490;-68
2023/12/22 05:32:30;;;;;;;0.28;0.28;;;;;;;5.66;96.35;98168.09;4946030;28;20039;-68
2023/12/22 05:34:55;;;;;;;0.28;0.22;;;;;;;5.72;96.33;98176.47;4944421;28;21490;-68
2023/12/22 05:37:20;;;;;;;0.30;0.30;;;;;;;5.76;95.44;98175.31;4939070;29;20616;-68
2023/12/22 05:39:46;;;;;;;0.40;0.40;;;;;;;5.67;94.87;98155.50;4944290;28;20043;-68
2023/12/22 05:42:12;;;;;;;0.20;0.20;;;;;;;5.59;94.71;98160.09;4944731;29;20038;-68
2023/12/22 05:44:38;;;;;;;4.68;0.40;;;;;;;5.69;94.46;98158.56;4945540;28;20036;-68
2023/12/22 05:47:04;;;;;;;0.50;0.50;;;;;;;5.73;92.69;98175.34;4976480;28;20027;-68
2023/12/22 05:49:30;;;;;;;1.48;0.60;;;;;;;5.42;94.12;98182.19;4946512;28;20047;-69
2023/12/22 05:51:56;;;;;;;0.40;0.40;;;;;;;5.41;95.18;98224.16;4947804;28;20039;-68
2023/12/22 05:54:21;;;;;;;0.20;0.20;;;;;;;5.47;96.58;98261.88;4946338;28;20534;-68
2023/12/22 05:56:46;;;;;;;0.35;0.35;;;;;;;5.29;97.34;98232.50;4941711;28;20035;-68
2023/12/22 05:59:12;;;;;;;0.65;0.52;;;;;;;4.96;98.30;98227.47;4944103;28;20134;-68
2023/12/22 06:01:37;;;;;;;1.02;0.50;;;;;;;4.85;98.10;98236.59;4941656;28;20871;-68
2023/12/22 06:04:03;;;;;;;0.30;0.30;;;;;;;4.79;98.15;98203.44;4943293;28;20578;-68
2023/12/22 06:06:29;;;;;;;3.50;0.98;;;;;;;4.91;96.60;98209.19;4939561;28;20039;-68
2023/12/22 06:08:55;;;;;;;0.30;0.30;;;;;;;4.83;96.84;98218.31;4940893;29;20103;-70
2023/12/22 06:11:21;;;;;;;0.35;0.35;;;;;;;5.13;96.28;98226.75;4941044;28;20035;-68
2023/12/22 06:13:47;;;;;;;0.35;0.35;;;;;;;4.97;95.12;98229.03;4969549;28;20070;-68
2023/12/22 06:16:18;;;;;;;0.25;0.25;;;;;;;5.05;94.87;98243.88;4942271;28;20122;-68
2023/12/22 06:18:44;;;;;;;0.63;0.50;;;;;;;5.09;94.07;98257.97;4939463;29;20088;-69
2023/12/22 06:21:10;;;;;;;0.38;0.38;;;;;;;4.72;96.47;98275.38;4939337;29;20043;-68
2023/12/22 06:23:36;;;;;;;0.45;0.45;;;;;;;5.05;96.34;98256.47;4943221;28;20047;-68
2023/12/22 06:26:02;;;;;;;1.20;0.40;;;;;;;4.98;94.22;98281.19;4943878;29;20110;-68
2023/12/22 06:28:28;;;;;;;1.02;0.32;;;;;;;4.86;95.65;98262.13;4941997;28;20027;-69
2023/12/22 06:30:54;;;;;;;0.20;0.20;;;;;;;4.72;95.96;98257.50;4967344;28;20027;-68
2023/12/22 06:33:20;;;;;;;0.20;0.20;;;;;;;4.87;94.39;98256.41;4943452;29;20518;-69
2023/12/22 06:35:45;;;;;;;1.08;0.30;;;;;;;4.52;96.22;98264.25;4939648;28;20114;-69
2023/12/22 06:38:11;;;;;;;2.80;0.68;;;;;;;4.60;95.61;98257.81;4943351;28;20078;-69
2023/12/22 06:40:37;;;;;;;2.92;0.35;;;;;;;4.92;95.21;98274.69;4942503;29;20047;-69
2023/12/22 06:43:04;;;;;;;0.57;0.30;;;;;;;4.98;94.35;98277.75;4940048;29;20050;-69
2023/12/22 06:45:30;;;;;;;0.28;0.28;;;;;;;4.85;94.19;98284.56;4940529;29;20126;-69
2023/12/22 06:47:55;;;;;;;0.40;0.40;;;;;;;4.85;95.31;98292.56;4938593;29;20039;-69
2023/12/22 06:50:21;;;;;;;0.47;0.47;;;;;;;4.83;97.18;98284.97;4938259;28;20047;-68
2023/12/22 06:52:46;;;;;;;7.70;0.75;;;;;;;5.21;97.68;98286.97;4975405;28;20063;-68
2023/12/22 06:55:12;;;;;;;1.77;0.43;;;;;;;5.28;93.51;98289.66;4943828;28;20212;-69
2023/12/22 06:57:37;;;;;;;2.40;0.30;;;;;;;5.00;92.65;98296.81;4943282;28;20036;-68
2023/12/22 07:00:04;;;;;;;0.38;0.38;;;;;;;4.85;92.31;98304.00;4944199;29;20519;-68
2023/12/22 07:02:29;;;;;;;3.92;0.60;;;;;;;4.73;92.40;98311.56;4946535;29;20045;-68
2023/12/22 07:05:22;;;;;;;2.72;0.80;;;;;;;4.99;91.11;98321.97;4950579;28;20035;-68
2023/12/22 07:07:48;;;;;;;0.50;0.50;;;;;;;5.21;88.90;98327.00;4946405;28;20055;-69
2023/12/22 07:10:13;;;;;;;1.08;0.40;;;;;;;4.96;88.59;98320.03;4951917;28;20120;-68
2023/12/22 07:12:39;;;;;;;0.85;0.82;;;;;;;5.07;89.19;98326.94;4976373;28;20142;-68
2023/12/22 07:15:09;;;;;;;2.55;0.77;;;;;;;5.14;89.67;98324.31;4948818;28;20086;-68
2023/12/22 07:17:34;;;;;;;0.20;0.20;;;;;;;5.18;87.86;98330.44;4945873;29;20043;-69
2023/12/22 07:20:02;;;;;;;10.30;0.70;;;;;;;5.56;87.48;98337.00;4945287;29;20122;-68
2023/12/22 07:22:28;;;;;;;1.10;0.60;;;;;;;5.54;86.24;98347.28;4945479;29;20082;-68
2023/12/22 07:24:55;;;;;;;7.05;0.68;;;;;;;5.49;85.97;98342.34;4943859;29;20039;-68
2023/12/22 07:27:21;;;;;;;1.25;0.73;;;;;;;5.66;86.65;98344.28;4946215;29;20035;-69
2023/12/22 07:29:46;;;;;;;5.93;0.65;;;;;;;5.71;86.95;98359.91;4947309;29;20069;-68
2023/12/22 07:32:12;;;;;;;1.50;0.85;;;;;;;5.50;88.05;98359.84;4945075;28;21169;-68
2023/12/22 07:34:38;;;;;;;3.63;1.55;;;;;;;5.62;86.83;98362.19;4949636;28;20042;-68
2023/12/22 07:37:04;;;;;;;4.65;3.05;;;;;;;5.69;87.13;98372.13;4945217;29;20039;-68
2023/12/22 07:39:30;;;;;;;2.70;0.60;;;;;;;5.84;86.75;98384.38;4946350;29;20146;-69
2023/12/22 07:41:55;;;;;;;1.27;0.30;;;;;;;5.76;86.85;98388.91;4945774;28;20110;-69
2023/12/22 07:44:21;;;;;;;2.42;0.80;;;;;;;5.69;87.00;98390.81;4947923;28;20486;-68
2023/12/22 07:46:58;;;;;;;3.08;1.95;;;;;;;5.93;85.65;98390.88;4928935;29;20031;-68
2023/12/22 07:49:25;;;;;;;0.32;0.30;;;;;;;5.89;86.51;98408.03;4943760;28;20071;-68
2023/12/22 07:51:52;;;;;;;4.55;0.40;;;;;;;5.91;86.29;98411.09;4947209;29;20027;-68
2023/12/22 07:54:18;;;;;;;0.40;0.40;;;;;;;5.57;87.05;98423.94;4946428;29;20047;-68
2023/12/22 07:56:43;;;;;;;0.80;0.73;;;;;;;5.45;90.45;98434.97;4942917;29;20031;-68
2023/12/22 07:59:09;;;;;;;3.03;0.73;;;;;;;5.24;92.60;98418.84;4947738;29;20504;-68
2023/12/22 08:01:34;;;;;;;4.45;0.60;;;;;;;5.08;94.45;98424.50;4946281;29;20042;-68
2023/12/22 08:04:00;;;;;;;4.03;0.68;;;;;;;5.25;93.14;98429.16;4947150;29;20113;-68
2023/12/22 08:06:25;;;;;;;0.82;0.60;;;;;;;5.17;94.16;98438.25;4942786;29;20035;-69
2023/12/22 08:08:51;;;;;;;2.63;1.00;;;;;;;5.53;92.78;98433.84;4943351;29;20514;-69
2023/12/22 08:11:16;;;;;;;3.67;0.95;;;;;;;5.20;93.76;98442.84;4943151;29;20035;-68
2023/12/22 08:13:42;;;;;;;1.33;0.82;;;;;;;5.25;94.05;98439.81;4970784;28;20086;-68
2023/12/22 08:16:08;;;;;;;6.65;0.77;;;;;;;5.47;94.58;98446.78;4946399;29;20035;-68
2023/12/22 08:18:33;;;;;;;2.17;0.90;;;;;;;5.46;93.92;98471.94;4929325;29;20061;-68
2023/12/22 08:20:59;;;;;;;0.30;0.30;;;;;;;5.35;93.79;98476.47;4948604;28;20039;-68
2023/12/22 08:23:24;;;;;;;2.15;0.50;;;;;;;5.20;95.05;98496.19;4947948;28;20499;-68
2023/12/22 08:25:50;;;;;;;0.70;0.60;;;;;;;5.01;96.43;98480.47;4950248;28;20023;-69
2023/12/22 08:28:15;;;;;;;4.82;1.05;;;;;;;5.13;96.89;98463.38;4947550;28;20541;-68
2023/12/22 08:30:40;;;;;;;0.95;0.80;;;;;;;5.07;96.72;98480.88;4940055;29;20039;-68
2023/12/22 08:33:06;;;;;;;0.60;0.60;;;;;;;4.84;97.28;98486.41;4972581;28;20097;-69
2023/12/22 08:35:31;;;;;;;0.95;0.73;;;;;;;4.85;98.34;98506.63;4945517;28;20023;-68
2023/12/22 08:37:57;;;;;;;1.40;0.70;;;;;;;4.86;99.40;98502.81;4929048;29;20035;-68
2023/12/22 08:40:25;;;;;;;6.65;1.02;;;;;;;5.10;97.67;98496.91;4949163;29;20507;-69
2023/12/22 08:42:54;;;;;;;0.68;0.50;;;;;;;5.14;97.65;98500.34;4948355;29;20462;-68
2023/12/22 08:45:21;;;;;;;2.83;0.50;;;;;;;5.07;97.99;98494.22;4948746;29;20082;-69
2023/12/22 08:47:46;;;;;;;0.65;0.65;;;;;;;5.17;97.39;98506.81;4948730;28;20038;-69
2023/12/22 08:50:12;;;;;;;1.55;0.45;;;;;;;5.23;97.57;98506.13;4947944;28;20042;-68
2023/12/22 08:52:38;;;;;;;10.95;0.57;;;;;;;5.14;97.67;98499.56;4948160;29;20039;-69
2023/12/22 08:55:05;;;;;;;0.20;0.20;;;;;;;5.47;97.70;98508.19;4946472;28;20039;-69
2023/12/22 08:57:31;;;;;;;0.35;0.35;;;;;;;5.67;96.87;98518.56;4940395;29;20035;-69
2023/12/22 08:59:57;;;;;;;0.95;0.52;;;;;;;5.93;95.73;98516.41;4948502;29;20031;-69
2023/12/22 09:02:23;;;;;;;3.05;0.88;;;;;;;5.79;93.92;98516.31;4947620;28;20041;-68
2023/12/22 09:04:48;;;;;;;5.25;0.55;;;;;;;5.99;93.03;98512.22;4949349;28;20023;-68
2023/12/22 09:07:13;;;;;;;1.63;0.98;;;;;;;5.98;92.81;98512.63;4940985;28;20433;-68
2023/12/22 09:09:40;;;;;;;0.82;0.82;;;;;;;5.63;93.15;98523.13;4948093;29;20081;-68
2023/12/22 09:12:05;;;;;;;2.45;0.70;;;;;;;5.72;91.59;98529.66;4949038;28;20046;-69
2023/12/22 09:14:31;;;;;;;1.95;1.30;;;;;;;5.39;91.35;98513.84;4947849;28;20039;-68
2023/12/22 09:16:57;;;;;;;2.90;1.27;;;;;;;5.46;90.19;98511.19;4937676;29;21702;-68
2023/12/22 09:19:22;;;;;;;0.20;0.20;;;;;;;5.42;89.60;98507.75;4970687;28;20179;-68
2023/12/22 09:21:48;;;;;;;6.00;0.60;;;;;;;5.65;88.59;98494.16;4938270;29;20042;-69
2023/12/22 09:24:16;;;;;;;0.52;0.52;;;;;;;5.62;87.50;98510.88;4945399;28;20557;-68
2023/12/22 09:26:41;;;;;;;0.20;0.20;;;;;;;5.75;86.87;98512.13;4961545;28;20032;-68
2023/12/22 09:29:07;;;;;;;0.20;0.20;;;;;;;5.70;86.98;98515.91;4963944;28;20042;-69
2023/12/22 09:31:32;;;;;;;0.55;0.50;;;;;;;5.77;85.37;98531.19;4946486;28;20118;-68
2023/12/22 09:33:58;;;;;;;1.20;1.10;;;;;;;5.62;84.14;98540.25;4947813;29;20039;-68
2023/12/22 09:36:23;;;;;;;0.47;0.30;;;;;;;5.75;85.06;98525.47;4944541;29;20498;-68
2023/12/22 09:38:49;;;;;;;0.55;0.35;;;;;;;5.80;83.86;98533.09;4946764;29;20075;-69
2023/12/22 09:41:15;;;;;;;1.27;0.45;;;;;;;6.17;83.95;98526.41;4945786;29;20027;-69
2023/12/22 09:43:43;;;;;;;1.15;0.35;;;;;;;6.17;81.63;98531.00;4962741;28;20035;-69
2023/12/22 09:46:09;;;;;;;3.90;1.00;;;;;;;5.99;83.02;98549.63;4943168;28;20122;-68
2023/12/22 09:48:39;;;;;;;0.60;0.60;;;;;;;6.05;82.75;98550.03;4948147;28;20027;-70
2023/12/22 09:51:06;;;;;;;1.25;0.65;;;;;;;6.46;82.63;98550.53;4947430;28;20035;-68
2023/12/22 09:53:33;;;;;;;2.78;0.73;;;;;;;6.73;81.21;98557.06;4948707;28;20031;-69
2023/12/22 09:55:59;;;;;;;1.40;0.88;;;;;;;6.95;80.56;98569.31;4948872;28;20118;-69
2023/12/22 09:58:25;;;;;;;0.88;0.47;;;;;;;7.06;79.52;98559.38;4950818;28;20541;-70
2023/12/22 10:00:52;;;;;;;2.40;1.20;;;;;;;7.38;78.87;98556.66;4948363;28;20035;-70
2023/12/22 10:03:20;;;;;;;1.75;0.88;;;;;;;7.36;77.71;98543.66;4948007;28;20031;-70
2023/12/22 10:05:46;;;;;;;3.20;1.00;;;;;;;7.25;77.58;98540.25;4952436;28;20031;-70
2023/12/22 10:08:13;;;;;;;0.80;0.40;;;;;;;7.08;76.75;98541.03;4948946;28;20031;-68
2023/12/22 10:10:40;;;;;;;3.95;0.75;;;;;;;7.30;76.72;98543.28;4949556;28;20043;-69
2023/12/22 10:13:09;;;;;;;2.20;0.55;;;;;;;7.48;76.02;98550.53;4949656;28;21462;-68
2023/12/22 10:15:39;;;;;;;2.40;0.68;;;;;;;7.28;76.83;98544.81;4947735;28;20106;-68
2023/12/22 10:18:05;;;;;;;3.10;1.10;;;;;;;7.07;77.03;98528.78;4949179;28;20058;-68
2023/12/22 10:20:31;;;;;;;0.55;0.30;;;;;;;6.75;78.52;98530.72;4953872;28;20279;-68
2023/12/22 10:22:56;;;;;;;5.82;0.35;;;;;;;6.61;77.13;98542.16;4949119;28;21895;-69
2023/12/22 10:25:28;;;;;;;0.22;0.22;;;;;;;6.74;79.36;98537.19;4969397;28;20083;-68
2023/12/22 10:27:54;;;;;;;1.65;0.50;;;;;;;6.80;79.73;98543.69;4948319;29;20047;-68
2023/12/22 10:30:21;;;;;;;3.42;0.85;;;;;;;6.89;79.88;98547.50;4942600;28;20042;-68
2023/12/22 10:32:46;;;;;;;4.00;0.60;;;;;;;7.07;78.85;98542.16;4939084;28;20097;-68
2023/12/22 10:35:12;;;;;;;0.25;0.25;;;;;;;6.77;79.58;98531.09;4958020;28;20023;-70
2023/12/22 10:37:38;;;;;;;3.45;0.77;;;;;;;6.79;78.66;98540.28;4927512;28;20723;-70
2023/12/22 10:40:11;;;;;;;1.52;0.45;;;;;;;6.67;80.10;98531.84;4942403;28;20058;-70
2023/12/22 10:42:46;;;;;;;1.52;0.50;;;;;;;6.76;80.17;98532.22;4954405;28;20039;-70
2023/12/22 10:45:13;;;;;;;3.50;0.88;;;;;;;6.76;81.37;98545.59;4942314;28;20031;-71
2023/12/22 10:47:39;;;;;;;1.60;0.82;;;;;;;6.83;80.68;98533.00;4936575;28;20045;-68
2023/12/22 10:50:05;;;;;;;10.05;0.65;;;;;;;6.74;80.72;98531.84;4968189;28;20074;-68
2023/12/22 10:52:31;;;;;;;1.83;0.80;;;;;;;6.74;80.57;98537.97;4941604;28;20051;-68
2023/12/22 10:55:00;;;;;;;7.43;1.08;;;;;;;6.62;82.17;98530.31;4944921;28;20058;-70
2023/12/22 10:57:27;;;;;;;0.38;0.38;;;;;;;6.86;80.98;98544.84;4947234;28;20055;-69
2023/12/22 10:59:52;;;;;;;0.98;0.60;;;;;;;6.87;80.34;98541.03;4939344;28;20043;-69
2023/12/22 11:02:19;;;;;;;0.43;0.43;;;;;;;6.97;80.04;98550.94;4939636;28;20106;-68
2023/12/22 11:05:00;;;;;;;3.72;0.65;;;;;;;7.02;79.22;98521.16;4941263;28;20027;-69
2023/12/22 11:07:26;;;;;;;0.82;0.47;;;;;;;7.19;79.18;98558.63;4939702;28;20135;-68
2023/12/22 11:09:55;;;;;;;2.15;0.60;;;;;;;7.40;79.08;98547.09;4950782;28;20114;-69
2023/12/22 11:12:21;;;;;;;0.57;0.22;;;;;;;7.03;78.67;98550.19;4966851;28;20505;-68
2023/12/22 11:14:52;;;;;;;0.85;0.82;;;;;;;6.98;80.97;98571.22;4943470;28;20126;-68
2023/12/22 11:17:22;;;;;;;5.50;1.50;;;;;;;6.60;82.68;98585.31;4941080;28;20117;-69
2023/12/22 11:19:50;;;;;;;0.85;0.50;;;;;;;6.77;81.74;98587.25;4955735;28;20126;-69
2023/12/22 11:22:19;;;;;;;2.45;1.08;;;;;;;6.70;81.77;98585.31;4944141;28;20070;-68
2023/12/22 11:24:48;;;;;;;3.28;0.60;;;;;;;6.95;81.13;98564.72;4941069;28;20039;-68
2023/12/22 11:27:20;;;;;;;0.20;0.20;;;;;;;6.73;83.03;98565.88;4936209;29;20035;-69
2023/12/22 11:29:50;;;;;;;3.25;0.70;;;;;;;6.79;85.21;98561.66;4944309;28;20035;-68
2023/12/22 11:32:16;;;;;;;1.17;0.47;;;;;;;7.05;83.67;98579.25;4939341;28;20041;-68
2023/12/22 11:34:46;;;;;;;0.22;0.22;;;;;;;6.69;85.00;98589.16;4941604;28;20545;-69
2023/12/22 11:37:16;;;;;;;8.02;0.88;;;;;;;7.06;84.63;98586.91;4947802;28;20396;-68